Schulenburg, Texas
Current Conditions -  °F | °C
As of 4:15 AM on Friday 31 Oct 2014 (Local Time) from K3T5 Reporting Station
Scattered Clouds Scattered Clouds  
Wind Chill: 65°   Ceiling: Unl
Heat Index: 65°   Visibility: 10mi
Dew Point: 58°   Wind: 3mph
Humidity: 78%   Direction: 350°N
Pressure: 30.12"   Gusts: NA
Location:  29.68°N, 96.9°W
Report Text: K3T5 310915Z AUTO 35003KT 10SM SCT055 SCT070 19/15 A3012 RMK AO2 LTG DSNT SW T01850146
Loading
Personal Weather Stations






























Interactive Weather Map
Tropical Storm Tracking
New forecast layout! Learn more

10-Day Weather Forecast

Advertisements
Track Severe Weather on mobile